Boxer — WDJ5325 — position and weather

sailwx.info

Track history (hours):
 
Tides and Currents Weather Stations Pressure Air Temp Water Temp Dewpoint Dewpoint Depression Visibility Wind Speed Wind Dir Waves Ship Positions

Boxer

Owner: Boxer Holding Inc., Miami, FL. More information available from US FCC via Universal Licensing System.

Last reported at 2018-Jan-19 10:41 UTC. Time now 2018-Jan-19 23:44 UTC.
Position N 25°42' W 080°16'.

Length 34 m; draft 2 m.

Type: Pleasure craft. MMSI: 367786550.

Date/timePositionNaut miles runAvg speedWind from/ knotsBaromVisibWave heightAir tempDewpointWater temp
2018-Jan-19 10:41N 25°42' W 080°16'0 0.0
2018-Jan-18 23:11N 25°42' W 080°16'  
2018-Jan-10 21:55N 25°42' W 080°16'0 0.0
2018-Jan-10 21:30N 25°42' W 080°16'2 3.6
2018-Jan-10 21:00N 25°41' W 080°14'610.8
2018-Jan-10 20:29N 25°39' W 080°08'613.0
2018-Jan-10 20:01N 25°40' W 080°02'713.5
2018-Jan-10 19:31N 25°43' W 079°55'2313.1
2018-Jan-10 17:46N 25°50' W 079°30'413.5
2018-Jan-10 17:30N 25°51' W 079°27'713.8
2018-Jan-10 17:01N 25°52' W 079°19'815.9
2018-Jan-10 16:30N 25°51' W 079°10'  
Track history (hours):
 
Tides and Currents Weather Stations Pressure Air Temp Water Temp Dewpoint Dewpoint Depression Visibility Wind Speed Wind Dir Waves Ship Positions

Boxer

Owner: Boxer Holding Inc., Miami, FL. More information available from US FCC via Universal Licensing System.

Last reported at 2018-Jan-19 10:41 UTC. Time now 2018-Jan-19 23:44 UTC.
Position N 25°42' W 080°16'.

Length 34 m; draft 2 m.

Type: Pleasure craft. MMSI: 367786550.

Date/timePositionNaut miles runAvg speedWind from/ knotsBaromVisibWave heightAir tempDewpointWater temp
2018-Jan-19 10:41N 25°42' W 080°16'0 0.0
2018-Jan-18 23:11N 25°42' W 080°16'  
2018-Jan-10 21:55N 25°42' W 080°16'0 0.0
2018-Jan-10 21:30N 25°42' W 080°16'2 3.6
2018-Jan-10 21:00N 25°41' W 080°14'610.8
2018-Jan-10 20:29N 25°39' W 080°08'613.0
2018-Jan-10 20:01N 25°40' W 080°02'713.5
2018-Jan-10 19:31N 25°43' W 079°55'2313.1
2018-Jan-10 17:46N 25°50' W 079°30'413.5
2018-Jan-10 17:30N 25°51' W 079°27'713.8
2018-Jan-10 17:01N 25°52' W 079°19'815.9
2018-Jan-10 16:30N 25°51' W 079°10'  

Dump ship's entire track history